Data for 12/23/2014

Time Sea-Level Adjusted Pressure Absolute Pressure Temperature Relative Humidity Dew Point   
(mb) (inHg) (mb) (inHg) (C) (F) (%) (C) (F)
00:05 1023 30.21 852 25.16 -2 28.3 75 -5.9 21.4
00:10 1023 30.21 852 25.16 -2 28.4 76 -5.8 21.6
00:15 1023 30.21 852 25.16 -2 28.4 75 -5.8 21.5
00:20 1023 30.21 852 25.16 -1.9 28.5 74 -5.9 21.4
00:25 1023 30.21 852 25.16 -2 28.5 74 -6 21.2
00:30 1023 30.21 852 25.16 -2.1 28.2 73 -6.3 20.6
00:35 1023 30.21 852 25.16 -2.1 28.2 74 -6.2 20.9
00:40 1023 30.21 852 25.16 -2.1 28.3 73 -6.2 20.8
00:45 1023 30.21 852 25.16 -2.1 28.2 73 -6.4 20.5
00:50 1023 30.21 852 25.16 -2 28.5 72 -6.4 20.5
00:55 1023 30.21 852 25.16 -1.9 28.7 71 -6.4 20.4
01:00 1023 30.21 852 25.16 -1.9 28.6 71 -6.5 20.4
01:05 1023 30.21 852 25.16 -2 28.5 71 -6.6 20.2
01:10 1023 30.21 852 25.16 -2.1 28.3 71 -6.6 20.1
01:15 1023 30.21 852 25.16 -2 28.4 71 -6.5 20.2
01:20 1023 30.21 852 25.16 -2 28.4 71 -6.6 20.1
01:25 1023 30.21 852 25.16 -2.1 28.2 71 -6.6 20.1
01:30 1023 30.21 852 25.16 -2.2 28 71 -6.8 19.8
01:35 1023 30.21 853 25.19 -2.2 28 72 -6.6 20
01:40 1023 30.21 853 25.19 -2.2 28 72 -6.6 20.2
01:45 1023 30.21 853 25.19 -2.3 27.9 73 -6.5 20.3
01:50 1023 30.21 853 25.19 -2.3 27.9 73 -6.4 20.4
01:55 1023 30.21 853 25.19 -2.3 27.8 73 -6.5 20.3
02:00 1023 30.21 853 25.19 -2.4 27.7 74 -6.4 20.4
02:05 1023 30.21 853 25.19 -2.4 27.7 74 -6.4 20.4
02:10 1023 30.21 853 25.19 -2.4 27.7 74 -6.4 20.5
02:15 1023 30.21 853 25.19 -2.4 27.6 74 -6.4 20.4
02:20 1024 30.24 853 25.19 -2.5 27.6 73 -6.6 20.1
02:25 1024 30.24 853 25.19 -2.5 27.5 72 -6.8 19.8
02:30 1024 30.24 853 25.19 -2.4 27.7 72 -6.8 19.8
02:35 1024 30.24 853 25.19 -2.4 27.6 72 -6.9 19.7
02:40 1024 30.24 853 25.19 -2.5 27.6 72 -6.9 19.5
02:45 1024 30.24 853 25.19 -2.6 27.3 72 -6.9 19.5
02:50 1024 30.24 853 25.19 -2.7 27.1 72 -7 19.3
02:55 1024 30.24 853 25.19 -2.9 26.8 73 -7.1 19.2
03:00 1024 30.24 853 25.19 -3 26.6 73 -7.2 19
03:05 1024 30.24 853 25.19 -3.1 26.5 73 -7.3 18.9
03:10 1024 30.24 853 25.19 -3.1 26.4 73 -7.3 18.9
03:15 1024 30.24 853 25.19 -3.1 26.5 73 -7.3 18.9
03:20 1024 30.24 853 25.19 -3.2 26.3 74 -7.2 19.1
03:25 1024 30.24 853 25.19 -3.3 26.1 75 -7.2 19.1
03:30 1024 30.24 854 25.22 -3.3 26.1 74 -7.2 19
03:35 1024 30.24 854 25.22 -3.2 26.2 74 -7.3 18.9
03:40 1024 30.24 854 25.22 -3.2 26.2 73 -7.3 18.8
03:45 1024 30.24 854 25.22 -3.3 26.1 74 -7.2 19.1
03:50 1025 30.27 854 25.22 -3.3 26 75 -7.2 19
03:55 1025 30.27 854 25.22 -3.3 26 74 -7.4 18.8
04:00 1025 30.27 854 25.22 -3.3 26.1 73 -7.4 18.6
04:05 1024 30.24 854 25.22 -3.2 26.2 72 -7.6 18.2
04:10 1024 30.24 854 25.22 -3.2 26.3 70 -7.8 17.9
04:15 1024 30.24 854 25.22 -3.2 26.3 70 -7.9 17.7
04:20 1024 30.24 853 25.19 -3.1 26.4 69 -8 17.6
04:25 1024 30.24 853 25.19 -3.1 26.4 69 -8.1 17.5
04:30 1024 30.24 854 25.22 -3.4 25.9 70 -8 17.6
04:35 1024 30.24 854 25.22 -3.7 25.4 71 -8.1 17.4
04:40 1024 30.24 854 25.22 -3.8 25.2 72 -8.1 17.4
04:45 1024 30.24 854 25.22 -4 24.8 73 -8.1 17.4
04:50 1024 30.24 854 25.22 -4.1 24.6 74 -8.1 17.4
04:55 1025 30.27 854 25.22 -4.2 24.5 75 -8 17.5
05:00 1025 30.27 854 25.22 -4.3 24.3 75 -8.1 17.4
05:05 1025 30.27 854 25.22 -4.3 24.4 74 -8.3 17.1
05:10 1025 30.27 854 25.22 -4 24.8 71 -8.5 16.7
05:15 1025 30.27 854 25.22 -3.8 25.2 70 -8.4 16.9
05:20 1025 30.27 854 25.22 -3.8 25.2 70 -8.6 16.6
05:25 1025 30.27 854 25.22 -3.7 25.4 69 -8.6 16.5
05:30 1025 30.27 854 25.22 -3.6 25.5 68 -8.8 16.2
05:35 1025 30.27 854 25.22 -3.6 25.5 67 -8.8 16.1
05:40 1025 30.27 854 25.22 -3.5 25.6 67 -8.7 16.3
05:45 1025 30.27 854 25.22 -3.5 25.6 67 -8.8 16.2
05:50 1025 30.27 854 25.22 -3.6 25.5 68 -8.8 16.2
05:55 1025 30.27 854 25.22 -3.8 25.2 68 -8.8 16.1
06:00 1025 30.27 854 25.22 -3.7 25.3 67 -8.9 16
06:05 1025 30.27 854 25.22 -3.6 25.6 67 -8.8 16.2
06:10 1025 30.27 854 25.22 -3.4 25.8 67 -8.8 16.2
06:15 1025 30.27 854 25.22 -3.3 26.1 66 -8.8 16.2
06:20 1025 30.27 854 25.22 -3.2 26.2 65 -8.9 16
06:25 1025 30.27 854 25.22 -3.2 26.3 66 -8.6 16.5
06:30 1025 30.27 854 25.22 -3.2 26.3 66 -8.6 16.5
06:35 1025 30.27 854 25.22 -3.2 26.2 67 -8.6 16.6
06:40 1025 30.27 854 25.22 -3.3 26.1 67 -8.5 16.6
06:45 1025 30.27 854 25.22 -3.2 26.2 65 -8.9 16.1
06:50 1025 30.27 854 25.22 -3.2 26.3 68 -8.3 17
06:55 1025 30.27 854 25.22 -3.5 25.7 68 -8.6 16.5
07:00 1025 30.27 854 25.22 -3.6 25.6 69 -8.4 16.9
07:05 1025 30.27 854 25.22 -3.7 25.3 69 -8.6 16.5
07:10 1025 30.27 854 25.22 -3.7 25.4 69 -8.5 16.6
07:15 1025 30.27 854 25.22 -3.6 25.5 68 -8.7 16.4
07:20 1025 30.27 855 25.25 -3.6 25.6 69 -8.6 16.6
07:25 1025 30.27 854 25.22 -3.6 25.6 68 -8.6 16.5
07:30 1025 30.27 854 25.22 -3.6 25.6 68 -8.6 16.6
07:35 1025 30.27 854 25.22 -3.6 25.6 68 -8.7 16.4
07:40 1025 30.27 854 25.22 -3.5 25.6 67 -8.8 16.1
07:45 1025 30.27 854 25.22 -3.5 25.7 67 -8.8 16.2
07:50 1025 30.27 854 25.22 -3.5 25.6 68 -8.7 16.3
07:55 1025 30.27 854 25.22 -3.6 25.5 68 -8.8 16.2
08:00 1025 30.27 855 25.25 -3.7 25.3 68 -8.8 16.2
08:05 1025 30.27 855 25.25 -3.8 25.2 66 -9.2 15.4
08:10 1025 30.27 854 25.22 -3.7 25.3 67 -9 15.9
08:15 1025 30.27 854 25.22 -3.8 25.2 69 -8.7 16.4
08:20 1025 30.27 854 25.22 -3.8 25.1 68 -8.9 16
08:25 1025 30.27 854 25.22 -3.7 25.3 66 -9.2 15.4
08:30 1025 30.27 855 25.25 -3.7 25.4 61 -10.1 13.8
08:35 1025 30.27 855 25.25 -3.7 25.3 61 -10.1 13.8
08:40 1025 30.27 855 25.25 -3.7 25.3 61 -10.2 13.7
08:45 1025 30.27 855 25.25 -3.8 25.2 62 -10 13.9
08:50 1025 30.27 855 25.25 -3.9 24.9 63 -10 14
08:55 1025 30.27 855 25.25 -4.2 24.5 65 -9.8 14.3
09:00 1025 30.27 855 25.25 -4.3 24.2 64 -10.2 13.7
09:05 1025 30.27 855 25.25 -4.4 24.1 64 -10.2 13.6
09:10 1025 30.27 855 25.25 -4.4 24.2 65 -9.9 14.1
09:15 1025 30.27 855 25.25 -4.6 23.7 69 -9.5 14.8
09:20 1025 30.27 855 25.25 -4.6 23.7 67 -9.9 14.2
09:25 1025 30.27 855 25.25 -4.4 24.2 65 -9.9 14.1
09:30 1025 30.27 855 25.25 -4.2 24.4 68 -9.3 15.3
09:35 1025 30.27 855 25.25 -4 24.8 66 -9.5 14.9
09:40 1025 30.27 855 25.25 -3.6 25.5 61 -10.2 13.7
09:45 1026 30.3 855 25.25 -3 26.6 60 -9.8 14.4
09:50 1026 30.3 855 25.25 -2.9 26.8 59 -9.9 14.2
09:55 1026 30.3 855 25.25 -2.7 27.1 56 -10.4 13.3
10:00 1025 30.27 855 25.25 -2.6 27.2 58 -9.9 14.2
10:05 1026 30.3 855 25.25 -3 26.6 57 -10.4 13.3
10:10 1025 30.27 855 25.25 -3.1 26.5 57 -10.5 13.2
10:15 1025 30.27 855 25.25 -3.2 26.2 58 -10.3 13.4
10:20 1026 30.3 855 25.25 -2.8 27 55 -10.5 13.1
10:25 1026 30.3 855 25.25 -3 26.5 58 -10.3 13.5
10:30 1026 30.3 855 25.25 -3.1 26.5 59 -10 14
10:35 1026 30.3 855 25.25 -2.9 26.7 58 -10.1 13.7
10:40 1026 30.3 855 25.25 -2.9 26.8 59 -9.8 14.3
10:45 1026 30.3 855 25.25 -2.7 27.1 58 -10 14.1
10:50 1026 30.3 855 25.25 -2.7 27.1 58 -9.9 14.2
10:55 1026 30.3 855 25.25 -2.6 27.4 57 -9.9 14.2
11:00 1026 30.3 855 25.25 -2.3 27.9 56 -9.9 14.2
11:05 1026 30.3 855 25.25 -1.8 28.8 54 -9.9 14.2
11:10 1026 30.3 855 25.25 -1.7 28.9 53 -10 14
11:15 1026 30.3 855 25.25 -1.2 29.8 51 -10.1 13.8
11:20 1026 30.3 855 25.25 -0.5 31.2 49 -9.9 14.1
11:25 1026 30.3 855 25.25 0.2 32.4 48 -9.5 14.8
11:30 1026 30.3 855 25.25 0.1 32.1 49 -9.4 15.1
11:35 1026 30.3 855 25.25 -0.1 31.8 51 -9.2 15.4
11:40 1026 30.3 855 25.25 0.2 32.4 47 -9.9 14.2
11:45 1026 30.3 855 25.25 0.9 33.7 46 -9.4 15
11:50 1026 30.3 855 25.25 0.5 32.9 50 -8.8 16.1
11:55 1026 30.3 855 25.25 -0.4 31.2 51 -9.4 15
12:00 1026 30.3 855 25.25 -1.2 29.8 53 -9.7 14.5
12:05 1026 30.3 855 25.25 -1.6 29.1 53 -10 14
12:10 1025 30.27 855 25.25 -2.2 28 55 -10.1 13.7
12:15 1025 30.27 855 25.25 -1.8 28.7 53 -10.2 13.6
12:20 1025 30.27 854 25.22 -1.7 29 52 -10.2 13.6
12:25 1025 30.27 854 25.22 -1.3 29.6 51 -10.3 13.5
12:30 1025 30.27 854 25.22 -1.3 29.6 51 -10.2 13.7
12:35 1025 30.27 854 25.22 -1 30.3 48 -10.8 12.6
12:40 1025 30.27 854 25.22 -0.6 30.9 47 -10.5 13.1
12:45 1025 30.27 854 25.22 -0.2 31.6 46 -10.6 12.8
12:50 1025 30.27 854 25.22 0.2 32.3 43 -11 12.3
12:55 1025 30.27 854 25.22 0.1 32.1 43 -11.2 11.8
13:00 1025 30.27 854 25.22 0.1 32.2 43 -11.1 12.1
13:05 1025 30.27 854 25.22 0.5 33 41 -11.3 11.6
13:10 1025 30.27 854 25.22 1 33.8 39 -11.4 11.6
13:15 1025 30.27 854 25.22 1.3 34.3 39 -11.1 12
13:20 1025 30.27 854 25.22 0.7 33.3 43 -10.5 13.2
13:25 1025 30.27 854 25.22 0.2 32.4 43 -11 12.3
13:30 1025 30.27 854 25.22 0.6 33.1 44 -10.4 13.2
13:35 1025 30.27 854 25.22 0.8 33.5 42 -10.8 12.6
13:40 1025 30.27 854 25.22 0.9 33.6 42 -10.6 13
13:45 1024 30.24 854 25.22 0.7 33.2 40 -11.3 11.6
13:50 1024 30.24 853 25.19 0.7 33.2 41 -11 12.2
13:55 1024 30.24 853 25.19 0.1 32.2 44 -10.8 12.6
14:00 1024 30.24 853 25.19 0 32.1 44 -10.9 12.3
14:05 1024 30.24 853 25.19 0 32 44 -10.9 12.4
14:10 1024 30.24 853 25.19 0.3 32.6 41 -11.3 11.6
14:15 1024 30.24 853 25.19 0.9 33.5 40 -11.4 11.5
14:20 1024 30.24 853 25.19 1.8 35.2 35 -12.2 10
14:25 1024 30.24 853 25.19 2.2 35.9 36 -11.3 11.7
14:30 1024 30.24 853 25.19 2.8 37.1 34 -11.4 11.4
14:35 1024 30.24 853 25.19 1.9 35.4 35 -12 10.3
14:40 1024 30.24 853 25.19 2.2 35.9 37 -11.2 11.9
14:45 1024 30.24 853 25.19 2.7 36.8 34 -11.7 10.9
14:50 1024 30.24 853 25.19 2.3 36.2 36 -11.3 11.7
14:55 1024 30.24 853 25.19 1.6 34.9 39 -10.9 12.3
15:00 1024 30.24 853 25.19 1.5 34.8 40 -10.6 12.9
15:05 1024 30.24 853 25.19 1.3 34.3 40 -10.8 12.6
15:10 1024 30.24 853 25.19 0.9 33.7 43 -10.3 13.4
15:15 1024 30.24 853 25.19 0.9 33.7 44 -10 14
15:20 1024 30.24 853 25.19 0.8 33.5 44 -10.2 13.6
15:25 1023 30.21 853 25.19 0.7 33.3 46 -9.5 14.9
15:30 1024 30.24 853 25.19 0.4 32.7 50 -8.8 16.1
15:35 1024 30.24 853 25.19 -0.9 30.4 52 -9.7 14.6
15:40 1023 30.21 853 25.19 -1.2 29.9 51 -10.1 13.7
15:45 1023 30.21 852 25.16 -1 30.2 48 -10.7 12.8
15:50 1023 30.21 852 25.16 -0.8 30.5 47 -10.7 12.7
15:55 1023 30.21 852 25.16 -0.7 30.8 48 -10.4 13.3
16:00 1023 30.21 852 25.16 -0.7 30.8 47 -10.6 12.9
16:05 1023 30.21 852 25.16 -0.7 30.7 49 -10.1 13.7
16:10 1023 30.21 852 25.16 -0.6 31 44 -11.2 11.8
16:15 1023 30.21 852 25.16 -0.4 31.3 48 -10 14
16:20 1023 30.21 852 25.16 -0.3 31.5 47 -10.2 13.6
16:25 1023 30.21 852 25.16 -0.3 31.4 46 -10.7 12.7
16:30 1023 30.21 852 25.16 -0.4 31.4 47 -10.4 13.2
16:35 1023 30.21 852 25.16 -0.2 31.6 47 -10.2 13.6
16:40 1023 30.21 852 25.16 -0.2 31.7 48 -10 14
16:45 1023 30.21 852 25.16 -0.2 31.6 47 -10.3 13.4
16:50 1023 30.21 852 25.16 -0.4 31.3 49 -9.8 14.3
16:55 1023 30.21 852 25.16 -0.7 30.8 47 -10.6 12.9
17:00 1023 30.21 852 25.16 -0.8 30.6 45 -11.4 11.6
17:05 1022 30.18 852 25.16 -0.7 30.7 47 -10.8 12.6
17:10 1022 30.18 852 25.16 -0.8 30.5 45 -11.2 11.8
17:15 1022 30.18 852 25.16 -0.9 30.4 47 -10.9 12.3
17:20 1022 30.18 851 25.13 -0.9 30.3 45 -11.3 11.7
17:25 1022 30.18 851 25.13 -0.8 30.6 49 -10.3 13.5
17:30 1022 30.18 851 25.13 -0.6 30.9 49 -10.1 13.9
17:35 1022 30.18 851 25.13 -0.6 30.9 48 -10.2 13.7
17:40 1022 30.18 851 25.13 -0.9 30.4 50 -10.2 13.7
17:45 1022 30.18 851 25.13 -0.9 30.3 51 -9.7 14.5
17:50 1022 30.18 851 25.13 -0.9 30.3 50 -10.1 13.8
17:55 1022 30.18 851 25.13 -0.9 30.3 50 -10 14
18:00 1022 30.18 851 25.13 -0.9 30.3 52 -9.7 14.5
18:05 1022 30.18 851 25.13 -1.1 30 53 -9.4 15
18:10 1022 30.18 851 25.13 -1.3 29.7 53 -9.7 14.5
18:15 1022 30.18 851 25.13 -1.3 29.6 52 -10 14
18:20 1022 30.18 851 25.13 -1.3 29.7 45 -11.7 11
18:25 1022 30.18 851 25.13 -1.1 30 43 -12.3 9.9
18:30 1022 30.18 851 25.13 -0.9 30.4 50 -10 13.9
18:35 1022 30.18 851 25.13 -0.9 30.4 50 -10 14
18:40 1022 30.18 851 25.13 -0.9 30.4 51 -9.7 14.5
18:45 1021 30.15 851 25.13 -1.2 29.9 52 -9.8 14.4
18:50 1022 30.18 851 25.13 -1.3 29.6 52 -10.1 13.9
18:55 1022 30.18 851 25.13 -1.2 29.8 50 -10.3 13.4
19:00 1022 30.18 851 25.13 -1 30.2 47 -10.8 12.5
19:05 1022 30.18 851 25.13 -0.9 30.4 45 -11.4 11.4
19:10 1022 30.18 851 25.13 -0.7 30.8 46 -11 12.2
19:15 1021 30.15 851 25.13 -0.5 31.2 44 -11.3 11.6
19:20 1021 30.15 850 25.1 -0.3 31.5 45 -10.7 12.7
19:25 1021 30.15 850 25.1 -0.2 31.6 47 -10.2 13.6
19:30 1021 30.15 850 25.1 -0.2 31.6 49 -9.7 14.5
19:35 1021 30.15 850 25.1 -0.6 31 51 -9.5 14.8
19:40 1021 30.15 850 25.1 -0.7 30.7 50 -10 13.9
19:45 1021 30.15 850 25.1 -0.9 30.3 53 -9.4 15.1
19:50 1021 30.15 850 25.1 -0.8 30.6 52 -9.6 14.8
19:55 1021 30.15 850 25.1 -0.9 30.3 55 -9 15.9
20:00 1021 30.15 850 25.1 -1.1 30 57 -8.6 16.5
20:05 1021 30.15 850 25.1 -1 30.1 56 -8.8 16.1
20:10 1021 30.15 850 25.1 -1 30.2 56 -8.7 16.3
20:15 1021 30.15 850 25.1 -0.9 30.3 50 -10.2 13.6
20:20 1021 30.15 850 25.1 -0.7 30.7 52 -9.4 15.1
20:25 1021 30.15 850 25.1 -0.6 31 53 -9.1 15.7
20:30 1020 30.12 850 25.1 -0.6 31 54 -8.7 16.4
20:35 1020 30.12 849 25.07 -1.1 30 56 -8.7 16.3
20:40 1020 30.12 849 25.07 -1.5 29.4 54 -9.7 14.6
20:45 1020 30.12 849 25.07 -1.2 29.9 54 -9.3 15.3
20:50 1020 30.12 849 25.07 -1.2 29.8 52 -9.9 14.2
20:55 1020 30.12 849 25.07 -1.2 29.8 57 -8.8 16.2
21:00 1020 30.12 849 25.07 -1.5 29.4 57 -8.8 16.1
21:05 1020 30.12 849 25.07 -1.4 29.4 56 -9.2 15.5
21:10 1020 30.12 849 25.07 -1.5 29.4 55 -9.3 15.3
21:15 1020 30.12 849 25.07 -1.4 29.5 54 -9.6 14.8
21:20 1020 30.12 849 25.07 -1.2 29.9 52 -9.8 14.4
21:25 1020 30.12 849 25.07 -1 30.2 52 -9.7 14.6
21:30 1020 30.12 849 25.07 -1 30.3 52 -9.7 14.6
21:35 1020 30.12 849 25.07 -1.1 29.9 52 -9.9 14.2
21:40 1020 30.12 849 25.07 -1.1 30 51 -9.9 14.1
21:45 1020 30.12 849 25.07 -1 30.1 53 -9.5 14.8
21:50 1020 30.12 849 25.07 -1.1 29.9 52 -9.7 14.5
21:55 1020 30.12 849 25.07 -1 30.2 53 -9.3 15.2
22:00 1020 30.12 849 25.07 -0.9 30.4 51 -9.8 14.4
22:05 1020 30.12 849 25.07 -0.8 30.6 54 -9 15.8
22:10 1019 30.09 849 25.07 -0.8 30.5 53 -9.3 15.3
22:15 1019 30.09 849 25.07 -0.9 30.3 56 -8.7 16.3
22:20 1019 30.09 849 25.07 -1.2 29.8 56 -8.9 16
22:25 1019 30.09 848 25.04 -1.3 29.6 57 -8.8 16.1
22:30 1019 30.09 848 25.04 -1.2 29.8 57 -8.7 16.3
22:35 1019 30.09 848 25.04 -1 30.3 56 -8.8 16.2
22:40 1019 30.09 848 25.04 -1.1 30 58 -8.4 16.8
22:45 1019 30.09 848 25.04 -1.4 29.5 62 -7.8 17.9
22:50 1019 30.09 848 25.04 -1.7 28.9 65 -7.5 18.4
22:55 1019 30.09 848 25.04 -1.8 28.7 64 -7.8 18
23:00 1019 30.09 848 25.04 -1.5 29.2 62 -7.8 18
23:05 1019 30.09 848 25.04 -1.3 29.7 58 -8.5 16.7
23:10 1019 30.09 848 25.04 -1 30.2 55 -9 15.8
23:15 1019 30.09 848 25.04 -0.9 30.3 55 -8.8 16.1
23:20 1018 30.06 848 25.04 -1.1 30 55 -9 15.8
23:25 1018 30.06 847 25.01 -1.2 29.8 58 -8.3 17
23:30 1018 30.06 847 25.01 -1.2 29.9 55 -9 15.8
23:35 1018 30.06 847 25.01 -1.1 30 57 -8.5 16.6
23:40 1018 30.06 847 25.01 -1.3 29.6 58 -8.6 16.4
23:45 1017 30.03 847 25.01 -1.3 29.6 58 -8.5 16.8
23:50 1017 30.03 847 25.01 -1.4 29.5 60 -8.2 17.3
23:55 1017 30.03 847 25.01 -1.7 28.9 64 -7.7 18.1
24:00 1017 30.03 847 25.01 -1.9 28.5 65 -7.6 18.3